createdAt,value
2022-10-19T00:00:49.739Z,102138.88
2022-10-19T00:03:56.777Z,102142.34
2022-10-19T00:07:03.166Z,102133.84
2022-10-19T00:10:08.915Z,102145.66
2022-10-19T00:13:14.068Z,102150.81
2022-10-19T00:16:20.237Z,102166.03
2022-10-19T00:19:27.494Z,102165.19
2022-10-19T00:22:33.958Z,102165.16
2022-10-19T00:25:39.427Z,102166.75
2022-10-19T00:28:44.921Z,102185.44
2022-10-19T00:32:07.870Z,102173.59
2022-10-19T00:35:30.563Z,102165.09
2022-10-19T00:38:36.764Z,102169.28
2022-10-19T00:41:42.731Z,102182.00
2022-10-19T00:45:15.931Z,102182.91
2022-10-19T00:48:26.789Z,102184.56
2022-10-19T00:51:33.607Z,102199.69
2022-10-19T00:54:42.010Z,102192.06
2022-10-19T00:57:46.785Z,102198.84
2022-10-19T01:05:11.715Z,102209.91
2022-10-19T01:08:17.712Z,102211.56
2022-10-19T01:11:38.065Z,102214.88
2022-10-19T01:14:59.087Z,102217.50
2022-10-19T01:18:11.161Z,102218.28
2022-10-19T01:21:27.319Z,102217.38
2022-10-19T01:24:46.637Z,102218.06
2022-10-19T01:28:05.211Z,102226.69
2022-10-19T01:31:22.008Z,102241.91
2022-10-19T01:34:33.140Z,102231.75
2022-10-19T01:37:42.602Z,102228.31
2022-10-19T01:40:56.693Z,102237.66
2022-10-19T01:44:06.793Z,102233.28
2022-10-19T01:47:18.223Z,102238.41
2022-10-19T01:50:33.344Z,102234.13
2022-10-19T01:53:42.629Z,102238.34
2022-10-19T01:56:49.826Z,102233.97
2022-10-19T01:59:56.439Z,102228.06
2022-10-19T02:03:05.908Z,102242.44
2022-10-19T02:06:13.476Z,102238.25
2022-10-19T02:09:20.194Z,102234.69
2022-10-19T02:12:26.071Z,102241.63
2022-10-19T02:15:32.806Z,102251.72
2022-10-19T02:18:43.931Z,102250.84
2022-10-19T02:21:49.195Z,102259.22
2022-10-19T02:24:54.008Z,102257.59
2022-10-19T02:27:58.733Z,102265.13
2022-10-19T02:31:03.616Z,102255.00
2022-10-19T02:34:10.299Z,102271.13
2022-10-19T02:37:15.096Z,102254.22
2022-10-19T02:40:20.465Z,102268.56
2022-10-19T02:43:26.662Z,102264.31
2022-10-19T02:46:37.181Z,102265.16
2022-10-19T02:49:44.380Z,102274.38
2022-10-19T02:52:49.164Z,102267.69
2022-10-19T02:55:54.116Z,102277.88
2022-10-19T02:59:00.409Z,102281.16
2022-10-19T03:02:05.083Z,102280.25
2022-10-19T03:05:12.166Z,102280.25
2022-10-19T03:08:17.871Z,102290.34
2022-10-19T03:11:22.886Z,102287.75
2022-10-19T03:14:27.783Z,102285.28
2022-10-19T03:17:32.871Z,102297.97
2022-10-19T03:20:39.272Z,102280.25
2022-10-19T03:23:44.285Z,102292.72
2022-10-19T03:26:49.056Z,102301.34
2022-10-19T03:29:53.832Z,102308.91
2022-10-19T03:32:58.927Z,102303.91
2022-10-19T03:36:23.025Z,102301.31
2022-10-19T03:39:28.019Z,102296.22
2022-10-19T03:42:32.709Z,102312.22
2022-10-19T03:45:37.555Z,102311.34
2022-10-19T03:48:42.950Z,102308.09
2022-10-19T03:51:49.434Z,102320.81
2022-10-19T03:54:54.268Z,102317.41
2022-10-19T03:57:59.739Z,102328.25
2022-10-19T04:01:09.842Z,102338.22
2022-10-19T04:04:17.664Z,102331.53
2022-10-19T04:07:23.781Z,102330.66
2022-10-19T04:10:28.811Z,102333.28
2022-10-19T04:13:34.841Z,102340.06
2022-10-19T04:16:39.549Z,102339.22
2022-10-19T04:19:44.391Z,102332.50
2022-10-19T04:22:50.439Z,102337.41
2022-10-19T04:26:01.997Z,102332.34
2022-10-19T04:29:07.082Z,102335.78
2022-10-19T04:32:12.170Z,102341.44
2022-10-19T04:35:17.190Z,102354.09
2022-10-19T04:38:23.478Z,102358.28
2022-10-19T04:41:28.284Z,102350.50
2022-10-19T04:44:33.024Z,102355.69
2022-10-19T04:47:38.029Z,102365.22
2022-10-19T04:50:43.208Z,102365.38
2022-10-19T04:53:59.979Z,102363.47
2022-10-19T04:57:05.767Z,102366.06
2022-10-19T05:00:13.508Z,102379.56
2022-10-19T05:03:19.564Z,102386.84
2022-10-19T05:06:24.787Z,102396.09
2022-10-19T05:09:30.997Z,102386.81
2022-10-19T05:12:36.851Z,102389.47
2022-10-19T05:15:42.329Z,102395.38
2022-10-19T05:18:50.312Z,102397.09
2022-10-19T05:21:55.038Z,102385.84
2022-10-19T05:25:01.109Z,102396.03
2022-10-19T05:28:06.035Z,102395.31
2022-10-19T05:31:16.058Z,102407.22
2022-10-19T05:34:21.424Z,102412.31
2022-10-19T05:37:26.676Z,102412.06
2022-10-19T05:40:33.255Z,102415.22
2022-10-19T05:43:38.458Z,102407.66
2022-10-19T05:46:43.473Z,102409.50
2022-10-19T05:49:49.238Z,102414.31
2022-10-19T05:52:54.375Z,102417.56
2022-10-19T05:56:00.473Z,102423.44
2022-10-19T05:59:07.144Z,102430.06
2022-10-19T06:02:15.162Z,102420.97
2022-10-19T06:05:20.389Z,102419.28
2022-10-19T06:08:26.142Z,102422.88
2022-10-19T06:11:35.122Z,102428.38
2022-10-19T06:14:40.825Z,102420.16
2022-10-19T06:17:45.884Z,102430.25
2022-10-19T06:20:50.666Z,102431.13
2022-10-19T06:23:57.752Z,102443.09
2022-10-19T06:27:03.783Z,102438.72
2022-10-19T06:30:11.539Z,102439.75
2022-10-19T06:33:18.829Z,102446.63
2022-10-19T06:36:26.229Z,102454.25
2022-10-19T06:39:31.206Z,102459.38
2022-10-19T06:42:39.056Z,102451.69
2022-10-19T06:45:43.723Z,102457.72
2022-10-19T06:48:52.667Z,102456.84
2022-10-19T06:51:57.400Z,102461.97
2022-10-19T06:55:02.575Z,102463.69
2022-10-19T06:58:08.767Z,102471.28
2022-10-19T07:01:14.155Z,102484.06
2022-10-19T07:04:20.663Z,102477.53
2022-10-19T07:07:26.904Z,102473.44
2022-10-19T07:10:31.619Z,102477.72
2022-10-19T07:13:37.885Z,102483.78
2022-10-19T07:16:42.566Z,102477.03
2022-10-19T07:19:47.847Z,102491.50
2022-10-19T07:22:52.564Z,102483.03
2022-10-19T07:26:01.587Z,102492.41
2022-10-19T07:29:07.998Z,102505.19
2022-10-19T07:32:15.141Z,102506.91
2022-10-19T07:35:19.951Z,102510.31
2022-10-19T07:38:24.853Z,102512.09
2022-10-19T07:41:29.926Z,102504.53
2022-10-19T07:44:36.433Z,102516.41
2022-10-19T07:47:41.462Z,102513.91
2022-10-19T07:50:49.288Z,102511.34
2022-10-19T07:53:54.280Z,102526.66
2022-10-19T07:56:59.101Z,102530.13
2022-10-19T08:00:06.797Z,102514.91
2022-10-19T08:04:14.348Z,102526.00
2022-10-19T08:06:42.035Z,102526.00
2022-10-19T08:09:53.320Z,102527.84
2022-10-19T08:12:58.645Z,102529.59
2022-10-19T08:16:05.823Z,102530.50
2022-10-19T08:19:14.460Z,102537.34
2022-10-19T08:22:19.752Z,102547.53
2022-10-19T08:25:24.890Z,102533.97
2022-10-19T08:28:30.225Z,102542.53
2022-10-19T08:31:36.719Z,102550.28
2022-10-19T08:34:42.171Z,102543.50
2022-10-19T08:37:47.596Z,102542.69
2022-10-19T08:40:52.696Z,102554.56
2022-10-19T08:44:22.559Z,102554.72
2022-10-19T08:47:44.733Z,102552.19
2022-10-19T08:50:50.252Z,102556.47
2022-10-19T08:53:57.802Z,102549.75
2022-10-19T08:57:09.974Z,102549.78
2022-10-19T09:00:21.432Z,102553.25
2022-10-19T09:03:56.927Z,102551.56
2022-10-19T09:07:21.802Z,102547.34
2022-10-19T09:10:29.855Z,102552.50
2022-10-19T09:13:47.262Z,102553.38
2022-10-19T09:17:11.503Z,102551.78
2022-10-19T09:20:21.318Z,102556.06
2022-10-19T09:23:31.094Z,102551.84
2022-10-19T09:26:42.038Z,102556.13
2022-10-19T09:29:51.409Z,102563.84
2022-10-19T09:33:01.661Z,102569.88
2022-10-19T09:36:15.028Z,102558.88
2022-10-19T09:39:30.597Z,102559.84
2022-10-19T09:42:37.052Z,102559.97
2022-10-19T09:45:47.469Z,102566.81
2022-10-19T09:48:54.096Z,102556.69
2022-10-19T09:52:00.336Z,102562.59
2022-10-19T09:55:07.769Z,102555.81
2022-10-19T09:58:19.895Z,102567.75
2022-10-19T10:01:41.613Z,102564.34
2022-10-19T10:04:48.815Z,102575.41
2022-10-19T10:07:56.754Z,102570.38
2022-10-19T10:11:13.713Z,102570.47
2022-10-19T10:14:22.567Z,102566.34
2022-10-19T10:17:31.577Z,102569.72
2022-10-19T10:20:36.591Z,102565.50
2022-10-19T10:23:43.727Z,102557.06
2022-10-19T10:26:51.797Z,102564.66
2022-10-19T10:29:57.850Z,102554.53
2022-10-19T10:33:13.274Z,102557.06
2022-10-19T10:36:27.398Z,102556.28
2022-10-19T10:39:34.366Z,102548.63
2022-10-19T10:42:46.672Z,102547.81
2022-10-19T10:45:53.355Z,102554.63
2022-10-19T10:48:59.828Z,102545.31
2022-10-19T10:52:08.766Z,102536.00
2022-10-19T10:55:19.564Z,102541.94
2022-10-19T10:58:37.051Z,102534.34
2022-10-19T11:01:44.045Z,102533.50
2022-10-19T11:04:53.670Z,102543.72
2022-10-19T11:08:07.500Z,102540.34
2022-10-19T11:11:18.707Z,102549.69
2022-10-19T11:14:38.452Z,102553.16
2022-10-19T11:17:54.815Z,102550.59
2022-10-19T11:21:07.889Z,102542.97
2022-10-19T11:24:22.149Z,102554.06
2022-10-19T11:27:41.407Z,102548.97
2022-10-19T11:30:58.768Z,102557.50
2022-10-19T11:34:11.895Z,102549.84
2022-10-19T11:37:26.191Z,102561.78
2022-10-19T11:40:45.775Z,102562.63
2022-10-19T11:44:17.780Z,102562.66
2022-10-19T11:47:51.130Z,102575.44
2022-10-19T11:51:16.770Z,102570.31
2022-10-19T11:54:38.502Z,102570.34
2022-10-19T11:57:50.895Z,102560.97
2022-10-19T12:01:04.019Z,102549.06
2022-10-19T12:04:46.539Z,102551.63
2022-10-19T12:08:02.952Z,102544.03
2022-10-19T12:11:24.474Z,102538.94
2022-10-19T12:14:33.252Z,102539.81
2022-10-19T12:17:42.162Z,102540.69
2022-10-19T12:20:50.275Z,102541.56
2022-10-19T12:23:55.191Z,102538.19
2022-10-19T12:27:00.764Z,102546.66
2022-10-19T12:30:14.660Z,102550.91
2022-10-19T12:33:25.010Z,102540.69
2022-10-19T12:36:38.211Z,102549.25
2022-10-19T12:39:50.923Z,102539.88
2022-10-19T12:43:01.436Z,102539.88
2022-10-19T12:46:16.198Z,102550.97
2022-10-19T12:49:45.076Z,102540.72
2022-10-19T12:52:52.387Z,102539.91
2022-10-19T12:56:02.341Z,102532.22
2022-10-19T12:59:24.233Z,102522.03
2022-10-19T13:05:44.372Z,102527.13
2022-10-19T13:08:56.771Z,102527.97
2022-10-19T13:12:48.404Z,102533.94
2022-10-19T13:15:54.271Z,102535.63
2022-10-19T13:19:22.099Z,102530.53
2022-10-19T13:22:29.855Z,102529.63
2022-10-19T13:25:35.151Z,102530.47
2022-10-19T13:28:40.716Z,102525.34
2022-10-19T13:31:45.378Z,102536.41
2022-10-19T13:34:51.259Z,102540.63
2022-10-19T13:38:26.395Z,102544.88
2022-10-19T13:41:53.851Z,102535.53
2022-10-19T13:44:58.972Z,102538.94
2022-10-19T13:48:11.682Z,102538.94
2022-10-19T13:51:24.411Z,102540.63
2022-10-19T13:54:47.042Z,102534.69
2022-10-19T13:58:14.183Z,102539.81
2022-10-19T14:01:30.678Z,102539.84
2022-10-19T14:04:44.902Z,102538.13
2022-10-19T14:08:02.448Z,102527.88
2022-10-19T14:11:16.182Z,102533.81
2022-10-19T14:14:22.864Z,102533.81
2022-10-19T14:17:30.223Z,102532.09
2022-10-19T14:20:37.367Z,102531.25
2022-10-19T14:23:42.720Z,102531.22
2022-10-19T14:26:49.300Z,102526.13
2022-10-19T14:29:55.742Z,102528.66
2022-10-19T14:33:02.515Z,102522.69
2022-10-19T14:36:09.331Z,102521.00
2022-10-19T14:39:30.761Z,102519.31
2022-10-19T14:42:46.237Z,102513.34
2022-10-19T14:46:13.161Z,102508.25
2022-10-19T14:49:19.688Z,102501.41
2022-10-19T14:55:41.011Z,102514.16
2022-10-19T14:58:52.035Z,102510.72
2022-10-19T15:01:59.825Z,102504.78
2022-10-19T15:05:06.653Z,102499.69
2022-10-19T15:08:23.647Z,102510.75
2022-10-19T15:11:31.901Z,102515.81
2022-10-19T15:14:39.355Z,102520.00
2022-10-19T15:17:53.300Z,102519.94
2022-10-19T15:21:12.955Z,102522.50
2022-10-19T15:24:27.654Z,102522.47
2022-10-19T15:27:34.922Z,102517.41
2022-10-19T15:30:41.085Z,102519.06
2022-10-19T15:33:50.888Z,102519.97
2022-10-19T15:36:57.463Z,102520.78
2022-10-19T15:40:12.290Z,102521.63
2022-10-19T15:43:45.699Z,102527.53
2022-10-19T15:47:23.633Z,102529.19
2022-10-19T15:50:38.190Z,102529.97
2022-10-19T15:53:42.819Z,102527.44
2022-10-19T15:56:52.766Z,102529.94
2022-10-19T15:59:59.637Z,102528.25
2022-10-19T16:03:06.486Z,102532.50
2022-10-19T16:06:13.048Z,102529.94
2022-10-19T16:09:21.335Z,102527.34
2022-10-19T16:12:27.176Z,102536.63
2022-10-19T16:15:31.854Z,102531.53
2022-10-19T16:18:38.072Z,102533.22
2022-10-19T16:21:46.685Z,102533.16
2022-10-19T16:24:54.144Z,102536.53
2022-10-19T16:27:58.775Z,102545.91
2022-10-19T16:31:04.171Z,102536.50
2022-10-19T16:34:10.403Z,102533.06
2022-10-19T16:37:15.127Z,102526.31
2022-10-19T16:40:19.971Z,102535.66
2022-10-19T16:43:24.669Z,102531.44
2022-10-19T16:46:29.417Z,102537.31
2022-10-19T16:49:35.541Z,102539.88
2022-10-19T16:52:40.399Z,102530.63
2022-10-19T16:55:45.116Z,102524.63
2022-10-19T16:58:50.275Z,102528.84
2022-10-19T17:01:55.056Z,102532.25
2022-10-19T17:05:01.321Z,102539.84
2022-10-19T17:08:06.892Z,102535.63
2022-10-19T17:11:15.946Z,102545.81
2022-10-19T17:14:20.785Z,102550.94
2022-10-19T17:17:25.619Z,102540.59
2022-10-19T17:20:33.312Z,102542.41
2022-10-19T17:23:38.328Z,102546.69
2022-10-19T17:26:45.208Z,102532.91
2022-10-19T17:29:50.598Z,102534.75
2022-10-19T17:32:55.302Z,102539.78
2022-10-19T17:36:08.530Z,102538.16
2022-10-19T17:39:17.721Z,102540.69
2022-10-19T17:42:22.688Z,102536.38
2022-10-19T17:45:27.431Z,102543.97
2022-10-19T17:48:32.264Z,102548.22
2022-10-19T17:51:40.365Z,102551.56
2022-10-19T17:54:54.715Z,102549.84
2022-10-19T17:58:11.464Z,102544.81
2022-10-19T18:01:19.185Z,102549.03
2022-10-19T18:04:23.978Z,102544.78
2022-10-19T18:07:30.915Z,102547.31
2022-10-19T18:10:38.035Z,102544.66
2022-10-19T18:13:43.470Z,102550.63
2022-10-19T18:16:48.886Z,102542.88
2022-10-19T18:19:53.728Z,102546.34
2022-10-19T18:22:59.799Z,102545.44
2022-10-19T18:26:08.263Z,102549.66
2022-10-19T18:29:18.995Z,102548.81
2022-10-19T18:32:23.996Z,102553.16
2022-10-19T18:35:28.782Z,102546.25
2022-10-19T18:38:35.151Z,102543.72
2022-10-19T18:41:40.613Z,102548.75
2022-10-19T18:44:47.185Z,102546.22
2022-10-19T18:47:51.920Z,102553.84
2022-10-19T18:50:57.062Z,102547.00
2022-10-19T18:54:03.226Z,102531.75
2022-10-19T18:57:08.321Z,102537.63
2022-10-19T19:00:14.670Z,102534.25
2022-10-19T19:03:20.664Z,102530.06
2022-10-19T19:06:29.003Z,102525.78
2022-10-19T19:09:35.053Z,102526.66
2022-10-19T19:12:39.699Z,102537.66
2022-10-19T19:15:44.405Z,102536.00
2022-10-19T19:18:49.287Z,102529.22
2022-10-19T19:21:54.568Z,102541.94
2022-10-19T19:25:00.684Z,102538.41
2022-10-19T19:28:05.447Z,102535.84
2022-10-19T19:31:11.952Z,102529.06
2022-10-19T19:34:16.892Z,102527.41
2022-10-19T19:37:21.567Z,102533.38
2022-10-19T19:40:27.715Z,102533.41
2022-10-19T19:43:33.675Z,102529.97
2022-10-19T19:46:39.017Z,102535.03
2022-10-19T19:49:43.675Z,102532.44
2022-10-19T19:52:48.636Z,102535.84
2022-10-19T19:55:54.856Z,102520.59
2022-10-19T19:59:03.468Z,102534.19
2022-10-19T20:02:10.058Z,102529.91
2022-10-19T20:05:14.679Z,102537.50
2022-10-19T20:08:19.502Z,102533.22
2022-10-19T20:11:29.338Z,102538.22
2022-10-19T20:14:33.965Z,102538.31
2022-10-19T20:17:38.950Z,102543.25
2022-10-19T20:20:43.707Z,102549.25
2022-10-19T20:23:49.568Z,102544.09
2022-10-19T20:26:55.896Z,102552.50
2022-10-19T20:30:00.543Z,102548.31
2022-10-19T20:33:05.761Z,102557.66
2022-10-19T20:36:15.938Z,102550.00
2022-10-19T20:39:20.875Z,102545.69
2022-10-19T20:42:27.081Z,102532.13
2022-10-19T20:45:32.150Z,102541.41
2022-10-19T20:48:37.238Z,102538.81
2022-10-19T20:51:42.002Z,102534.59
2022-10-19T20:54:46.758Z,102534.59
2022-10-19T20:57:52.798Z,102526.94
2022-10-19T21:00:57.483Z,102535.34
2022-10-19T21:04:04.702Z,102534.56
2022-10-19T21:07:09.664Z,102529.47
2022-10-19T21:10:15.436Z,102523.41
2022-10-19T21:13:21.790Z,102522.66
2022-10-19T21:16:30.017Z,102515.91
2022-10-19T21:19:34.835Z,102514.25
2022-10-19T21:22:41.470Z,102511.66
2022-10-19T21:25:55.672Z,102521.78
2022-10-19T21:29:02.421Z,102518.34
2022-10-19T21:32:07.208Z,102523.41
2022-10-19T21:35:12.052Z,102521.69
2022-10-19T21:38:16.700Z,102519.13
2022-10-19T21:41:26.174Z,102511.50
2022-10-19T21:44:32.642Z,102524.16
2022-10-19T21:47:37.947Z,102511.56
2022-10-19T21:50:43.065Z,102496.34
2022-10-19T21:53:47.937Z,102484.47
2022-10-19T21:56:53.298Z,102489.63
2022-10-19T21:59:59.821Z,102481.91
2022-10-19T22:03:04.819Z,102485.28
2022-10-19T22:06:09.700Z,102476.91
2022-10-19T22:09:19.285Z,102472.59
2022-10-19T22:12:24.197Z,102489.50
2022-10-19T22:15:30.683Z,102481.00
2022-10-19T22:18:35.775Z,102471.66
2022-10-19T22:21:41.431Z,102477.63
2022-10-19T22:24:46.163Z,102482.72
2022-10-19T22:27:51.540Z,102476.78
2022-10-19T22:30:59.770Z,102488.44
2022-10-19T22:34:07.883Z,102494.38
2022-10-19T22:37:12.628Z,102486.59
2022-10-19T22:40:17.471Z,102491.03
2022-10-19T22:43:22.528Z,102485.09
2022-10-19T22:46:28.980Z,102475.78
2022-10-19T22:49:34.087Z,102477.53
2022-10-19T22:52:39.962Z,102480.81
2022-10-19T22:55:44.981Z,102469.81
2022-10-19T22:58:49.800Z,102481.56
2022-10-19T23:01:56.248Z,102479.84
2022-10-19T23:05:01.262Z,102486.75
2022-10-19T23:08:06.896Z,102482.44
2022-10-19T23:11:12.676Z,102487.53
2022-10-19T23:14:17.750Z,102488.38
2022-10-19T23:17:23.975Z,102492.69
2022-10-19T23:20:28.816Z,102479.94
2022-10-19T23:23:34.993Z,102483.34
2022-10-19T23:26:40.347Z,102490.13
2022-10-19T23:29:45.467Z,102479.91
2022-10-19T23:32:51.815Z,102490.94
2022-10-19T23:35:56.634Z,102479.88
2022-10-19T23:39:01.634Z,102482.44
2022-10-19T23:42:06.880Z,102480.69
2022-10-19T23:45:15.265Z,102479.94
2022-10-19T23:48:21.555Z,102473.94
2022-10-19T23:51:26.323Z,102476.47
2022-10-19T23:54:31.418Z,102480.63
2022-10-19T23:57:36.541Z,102470.44
